sensor_id;sensor_type;location;lat;lon;timestamp;pressure;altitude;pressure_sealevel;temperature;humidity
8051;BME280;4068;42.158;24.732;2023-03-22T00:00:24;99262.72;;;10.48;100.00
8051;BME280;4068;42.158;24.732;2023-03-22T00:02:52;99289.63;;;10.65;100.00
8051;BME280;4068;42.158;24.732;2023-03-22T00:05:18;99285.81;;;10.58;100.00
8051;BME280;4068;42.158;24.732;2023-03-22T00:07:43;99254.31;;;10.43;100.00
8051;BME280;4068;42.158;24.732;2023-03-22T00:10:09;99282.16;;;10.59;100.00
8051;BME280;4068;42.158;24.732;2023-03-22T00:12:35;99285.69;;;10.59;100.00
8051;BME280;4068;42.158;24.732;2023-03-22T00:15:00;99295.56;;;10.57;100.00
8051;BME280;4068;42.158;24.732;2023-03-22T00:17:26;99293.09;;;10.44;100.00
8051;BME280;4068;42.158;24.732;2023-03-22T00:19:52;99297.91;;;10.50;100.00
8051;BME280;4068;42.158;24.732;2023-03-22T00:22:19;99288.13;;;10.51;100.00
8051;BME280;4068;42.158;24.732;2023-03-22T00:24:44;99290.78;;;10.51;100.00
8051;BME280;4068;42.158;24.732;2023-03-22T00:27:10;99258.38;;;10.26;100.00
8051;BME280;4068;42.158;24.732;2023-03-22T00:29:36;99297.91;;;10.50;100.00
8051;BME280;4068;42.158;24.732;2023-03-22T00:32:01;99288.13;;;10.51;100.00
8051;BME280;4068;42.158;24.732;2023-03-22T00:34:31;99281.00;;;10.51;100.00
8051;BME280;4068;42.158;24.732;2023-03-22T00:36:57;99287.44;;;10.49;100.00
8051;BME280;4068;42.158;24.732;2023-03-22T00:39:23;99280.88;;;10.53;100.00
8051;BME280;4068;42.158;24.732;2023-03-22T00:41:48;99287.44;;;10.49;100.00
8051;BME280;4068;42.158;24.732;2023-03-22T00:44:15;99287.31;;;10.50;100.00
8051;BME280;4068;42.158;24.732;2023-03-22T00:46:40;99286.06;;;10.55;100.00
8051;BME280;4068;42.158;24.732;2023-03-22T00:49:06;99248.00;;;10.23;100.00
8051;BME280;4068;42.158;24.732;2023-03-22T00:51:31;99286.38;;;10.40;100.00
8051;BME280;4068;42.158;24.732;2023-03-22T00:53:57;99288.19;;;10.40;100.00
8051;BME280;4068;42.158;24.732;2023-03-22T00:56:22;99254.84;;;10.26;100.00
8051;BME280;4068;42.158;24.732;2023-03-22T00:58:49;99279.72;;;10.46;100.00
8051;BME280;4068;42.158;24.732;2023-03-22T01:01:15;99270.47;;;10.40;100.00
8051;BME280;4068;42.158;24.732;2023-03-22T01:03:42;99280.25;;;10.40;100.00
8051;BME280;4068;42.158;24.732;2023-03-22T01:06:08;99275.44;;;10.33;100.00
8051;BME280;4068;42.158;24.732;2023-03-22T01:08:34;99264.09;;;10.31;100.00
8051;BME280;4068;42.158;24.732;2023-03-22T01:11:04;99270.88;;;10.35;100.00
8051;BME280;4068;42.158;24.732;2023-03-22T01:13:30;99241.88;;;10.23;100.00
8051;BME280;4068;42.158;24.732;2023-03-22T01:15:56;99256.66;;;10.36;100.00
8051;BME280;4068;42.158;24.732;2023-03-22T01:18:21;99261.59;;;10.30;100.00
8051;BME280;4068;42.158;24.732;2023-03-22T01:20:47;99259.59;;;10.22;100.00
8051;BME280;4068;42.158;24.732;2023-03-22T01:23:12;99258.38;;;10.26;100.00
8051;BME280;4068;42.158;24.732;2023-03-22T01:25:38;99273.03;;;10.30;100.00
8051;BME280;4068;42.158;24.732;2023-03-22T01:28:03;99251.09;;;10.07;100.00
8051;BME280;4068;42.158;24.732;2023-03-22T01:30:31;99276.91;;;10.26;100.00
8051;BME280;4068;42.158;24.732;2023-03-22T01:32:56;99287.44;;;10.16;100.00
8051;BME280;4068;42.158;24.732;2023-03-22T01:35:22;99279.75;;;10.13;100.00
8051;BME280;4068;42.158;24.732;2023-03-22T01:37:48;99279.28;;;10.08;100.00
8051;BME280;4068;42.158;24.732;2023-03-22T01:40:13;99247.06;;;9.92;100.00
8051;BME280;4068;42.158;24.732;2023-03-22T01:42:40;99271.47;;;10.07;100.00
8051;BME280;4068;42.158;24.732;2023-03-22T01:47:51;99233.16;;;9.78;100.00
8051;BME280;4068;42.158;24.732;2023-03-22T01:50:19;99261.03;;;9.94;100.00
8051;BME280;4068;42.158;24.732;2023-03-22T01:52:45;99238.09;;;9.72;100.00
8051;BME280;4068;42.158;24.732;2023-03-22T01:55:11;99255.69;;;9.73;100.00
8051;BME280;4068;42.158;24.732;2023-03-22T01:57:41;99269.84;;;9.83;100.00
8051;BME280;4068;42.158;24.732;2023-03-22T02:00:10;99266.28;;;9.73;100.00
8051;BME280;4068;42.158;24.732;2023-03-22T02:02:41;99251.50;;;9.59;100.00
8051;BME280;4068;42.158;24.732;2023-03-22T02:05:07;99272.66;;;9.70;100.00
8051;BME280;4068;42.158;24.732;2023-03-22T02:07:35;99282.66;;;9.66;100.00
8051;BME280;4068;42.158;24.732;2023-03-22T02:10:01;99276.06;;;9.61;100.00
8051;BME280;4068;42.158;24.732;2023-03-22T02:13:17;99283.53;;;9.56;100.00
8051;BME280;4068;42.158;24.732;2023-03-22T02:21:40;99284.25;;;9.58;100.00
8051;BME280;4068;42.158;24.732;2023-03-22T02:24:11;99282.44;;;9.58;100.00
8051;BME280;4068;42.158;24.732;2023-03-22T02:32:51;99292.66;;;9.63;100.00
8051;BME280;4068;42.158;24.732;2023-03-22T02:51:49;99293.84;;;9.59;100.00
8051;BME280;4068;42.158;24.732;2023-03-22T02:54:25;99288.59;;;9.47;100.00
8051;BME280;4068;42.158;24.732;2023-03-22T02:59:49;99291.00;;;9.50;100.00
8051;BME280;4068;42.158;24.732;2023-03-22T03:02:16;99295.81;;;9.57;100.00
8051;BME280;4068;42.158;24.732;2023-03-22T03:04:45;99299.03;;;9.60;100.00
8051;BME280;4068;42.158;24.732;2023-03-22T03:07:15;99305.75;;;9.64;100.00
8051;BME280;4068;42.158;24.732;2023-03-22T03:09:43;99313.34;;;9.69;100.00
8051;BME280;4068;42.158;24.732;2023-03-22T03:12:20;99308.38;;;9.76;100.00
8051;BME280;4068;42.158;24.732;2023-03-22T03:14:46;99315.59;;;9.85;100.00
8051;BME280;4068;42.158;24.732;2023-03-22T03:17:18;99319.47;;;9.81;100.00
8051;BME280;4068;42.158;24.732;2023-03-22T03:25:45;99320.66;;;9.88;100.00
8051;BME280;4068;42.158;24.732;2023-03-22T03:28:49;99323.41;;;9.87;100.00
8051;BME280;4068;42.158;24.732;2023-03-22T03:36:35;99319.59;;;9.79;100.00
8051;BME280;4068;42.158;24.732;2023-03-22T03:39:06;99319.47;;;9.81;100.00
8051;BME280;4068;42.158;24.732;2023-03-22T03:41:34;99298.69;;;9.65;100.00
8051;BME280;4068;42.158;24.732;2023-03-22T03:44:00;99322.97;;;9.70;100.00
8051;BME280;4068;42.158;24.732;2023-03-22T03:46:27;99304.59;;;9.46;100.00
8051;BME280;4068;42.158;24.732;2023-03-22T03:48:54;99319.00;;;9.64;100.00
8051;BME280;4068;42.158;24.732;2023-03-22T03:51:21;99291.47;;;9.44;100.00
8051;BME280;4068;42.158;24.732;2023-03-22T03:53:47;99325.19;;;9.54;100.00
8051;BME280;4068;42.158;24.732;2023-03-22T03:56:12;99319.13;;;9.52;100.00
8051;BME280;4068;42.158;24.732;2023-03-22T03:58:38;99318.31;;;9.51;100.00
8051;BME280;4068;42.158;24.732;2023-03-22T04:01:04;99318.31;;;9.51;100.00
8051;BME280;4068;42.158;24.732;2023-03-22T04:03:30;99320.72;;;9.54;100.00
8051;BME280;4068;42.158;24.732;2023-03-22T04:05:55;99306.53;;;9.32;100.00
8051;BME280;4068;42.158;24.732;2023-03-22T04:08:21;99334.78;;;9.55;100.00
8051;BME280;4068;42.158;24.732;2023-03-22T04:10:50;99332.63;;;9.48;100.00
8051;BME280;4068;42.158;24.732;2023-03-22T04:13:17;99332.75;;;9.47;100.00
8051;BME280;4068;42.158;24.732;2023-03-22T04:15:45;99336.09;;;9.49;100.00
8051;BME280;4068;42.158;24.732;2023-03-22T04:18:11;99338.16;;;9.45;100.00
8051;BME280;4068;42.158;24.732;2023-03-22T04:20:36;99344.91;;;9.38;100.00
8051;BME280;4068;42.158;24.732;2023-03-22T04:23:06;99345.63;;;9.40;100.00
8051;BME280;4068;42.158;24.732;2023-03-22T04:25:36;99352.59;;;9.30;100.00
8051;BME280;4068;42.158;24.732;2023-03-22T04:28:02;99348.50;;;9.26;100.00
8051;BME280;4068;42.158;24.732;2023-03-22T04:30:28;99353.56;;;9.29;100.00
8051;BME280;4068;42.158;24.732;2023-03-22T04:32:55;99354.53;;;9.39;100.00
8051;BME280;4068;42.158;24.732;2023-03-22T04:35:21;99356.44;;;9.37;100.00
8051;BME280;4068;42.158;24.732;2023-03-22T04:37:47;99340.44;;;9.27;100.00
8051;BME280;4068;42.158;24.732;2023-03-22T04:40:13;99360.78;;;9.38;100.00
8051;BME280;4068;42.158;24.732;2023-03-22T04:42:45;99359.47;;;9.44;100.00
8051;BME280;4068;42.158;24.732;2023-03-22T04:45:11;99360.78;;;9.38;100.00
8051;BME280;4068;42.158;24.732;2023-03-22T04:47:37;99366.09;;;9.38;100.00
8051;BME280;4068;42.158;24.732;2023-03-22T04:50:04;99360.78;;;9.38;100.00
8051;BME280;4068;42.158;24.732;2023-03-22T04:52:30;99339.75;;;9.25;100.00
8051;BME280;4068;42.158;24.732;2023-03-22T04:54:55;99369.31;;;9.42;100.00
8051;BME280;4068;42.158;24.732;2023-03-22T04:57:21;99367.28;;;9.34;100.00
8051;BME280;4068;42.158;24.732;2023-03-22T04:59:46;99375.94;;;9.36;100.00
8051;BME280;4068;42.158;24.732;2023-03-22T05:02:12;99374.03;;;9.38;100.00
8051;BME280;4068;42.158;24.732;2023-03-22T05:04:37;99375.72;;;9.39;100.00
8051;BME280;4068;42.158;24.732;2023-03-22T05:07:03;99366.91;;;9.39;100.00
8051;BME280;4068;42.158;24.732;2023-03-22T05:09:28;99374.41;;;9.45;100.00
8051;BME280;4068;42.158;24.732;2023-03-22T05:11:54;99370.63;;;9.47;100.00
8051;BME280;4068;42.158;24.732;2023-03-22T05:14:19;99348.50;;;9.48;100.00
8051;BME280;4068;42.158;24.732;2023-03-22T05:16:45;99384.84;;;9.69;100.00
8051;BME280;4068;42.158;24.732;2023-03-22T05:19:10;99385.06;;;9.77;100.00
8051;BME280;4068;42.158;24.732;2023-03-22T05:21:39;99352.19;;;9.80;100.00
8051;BME280;4068;42.158;24.732;2023-03-22T05:24:06;99387.78;;;10.10;100.00
8051;BME280;4068;42.158;24.732;2023-03-22T05:26:31;99393.06;;;10.10;100.00
8051;BME280;4068;42.158;24.732;2023-03-22T05:28:57;99400.06;;;10.11;100.00
8051;BME280;4068;42.158;24.732;2023-03-22T05:31:23;99399.13;;;10.12;100.00
8051;BME280;4068;42.158;24.732;2023-03-22T05:33:49;99406.44;;;10.19;100.00
8051;BME280;4068;42.158;24.732;2023-03-22T05:36:16;99397.03;;;10.15;100.00
8051;BME280;4068;42.158;24.732;2023-03-22T05:38:42;99416.78;;;10.34;100.00
8051;BME280;4068;42.158;24.732;2023-03-22T05:41:09;99414.34;;;10.42;100.00
8051;BME280;4068;42.158;24.732;2023-03-22T05:43:36;99420.75;;;10.40;100.00
8051;BME280;4068;42.158;24.732;2023-03-22T05:46:09;99395.56;;;10.34;100.00
8051;BME280;4068;42.158;24.732;2023-03-22T05:48:35;99429.44;;;10.63;100.00
8051;BME280;4068;42.158;24.732;2023-03-22T05:51:01;99428.22;;;10.67;100.00
8051;BME280;4068;42.158;24.732;2023-03-22T05:53:29;99439.03;;;10.75;100.00
8051;BME280;4068;42.158;24.732;2023-03-22T05:55:56;99432.22;;;10.61;100.00
8051;BME280;4068;42.158;24.732;2023-03-22T05:58:26;99433.75;;;10.75;100.00
8051;BME280;4068;42.158;24.732;2023-03-22T06:00:53;99451.53;;;10.84;100.00
8051;BME280;4068;42.158;24.732;2023-03-22T06:03:20;99450.38;;;10.98;100.00
8051;BME280;4068;42.158;24.732;2023-03-22T06:05:46;99458.56;;;10.74;100.00
8051;BME280;4068;42.158;24.732;2023-03-22T06:08:15;99449.41;;;10.78;100.00
8051;BME280;4068;42.158;24.732;2023-03-22T06:10:40;99455.19;;;10.83;100.00
8051;BME280;4068;42.158;24.732;2023-03-22T06:13:06;99457.50;;;10.77;100.00
8051;BME280;4068;42.158;24.732;2023-03-22T06:15:31;99456.31;;;10.69;100.00
8051;BME280;4068;42.158;24.732;2023-03-22T06:17:57;99459.91;;;10.68;100.00
8051;BME280;4068;42.158;24.732;2023-03-22T06:20:22;99459.34;;;10.65;100.00
8051;BME280;4068;42.158;24.732;2023-03-22T06:22:47;99460.44;;;10.62;100.00
8051;BME280;4068;42.158;24.732;2023-03-22T06:25:13;99468.75;;;10.69;100.00
8051;BME280;4068;42.158;24.732;2023-03-22T06:27:39;99462.84;;;10.65;100.00
8051;BME280;4068;42.158;24.732;2023-03-22T06:30:05;99477.78;;;10.66;100.00
8051;BME280;4068;42.158;24.732;2023-03-22T06:32:30;99480.00;;;10.50;100.00
8051;BME280;4068;42.158;24.732;2023-03-22T06:34:56;99488.78;;;10.62;100.00
8051;BME280;4068;42.158;24.732;2023-03-22T06:37:22;99463.50;;;10.46;100.00
8051;BME280;4068;42.158;24.732;2023-03-22T06:39:47;99492.84;;;10.66;100.00
8051;BME280;4068;42.158;24.732;2023-03-22T06:42:13;99500.09;;;10.64;100.00
8051;BME280;4068;42.158;24.732;2023-03-22T06:44:39;99503.69;;;10.63;100.00
8051;BME280;4068;42.158;24.732;2023-03-22T06:47:08;99497.66;;;10.72;100.00
8051;BME280;4068;42.158;24.732;2023-03-22T06:49:33;99501.00;;;10.74;100.00
8051;BME280;4068;42.158;24.732;2023-03-22T06:51:59;99503.41;;;10.77;100.00
8051;BME280;4068;42.158;24.732;2023-03-22T06:54:24;99505.84;;;10.80;100.00
8051;BME280;4068;42.158;24.732;2023-03-22T06:56:50;99490.66;;;10.71;100.00
8051;BME280;4068;42.158;24.732;2023-03-22T06:59:15;99496.53;;;10.86;100.00
8051;BME280;4068;42.158;24.732;2023-03-22T07:01:41;99504.75;;;11.04;100.00
8051;BME280;4068;42.158;24.732;2023-03-22T07:04:06;99500.50;;;11.13;100.00
8051;BME280;4068;42.158;24.732;2023-03-22T07:06:32;99497.34;;;11.19;100.00
8051;BME280;4068;42.158;24.732;2023-03-22T07:08:58;99510.94;;;11.26;100.00
8051;BME280;4068;42.158;24.732;2023-03-22T07:11:24;99506.09;;;11.31;100.00
8051;BME280;4068;42.158;24.732;2023-03-22T07:13:52;99496.81;;;11.46;100.00
8051;BME280;4068;42.158;24.732;2023-03-22T07:16:18;99481.22;;;11.53;100.00
8051;BME280;4068;42.158;24.732;2023-03-22T07:18:43;99438.03;;;11.09;100.00
8051;BME280;4068;42.158;24.732;2023-03-22T07:21:09;99431.00;;;10.65;100.00
8051;BME280;4068;42.158;24.732;2023-03-22T07:23:34;99455.97;;;10.63;100.00
8051;BME280;4068;42.158;24.732;2023-03-22T07:26:00;99455.91;;;10.74;100.00
8051;BME280;4068;42.158;24.732;2023-03-22T07:28:25;99443.84;;;10.81;100.00
8051;BME280;4068;42.158;24.732;2023-03-22T07:33:26;99475.91;;;11.32;100.00
8051;BME280;4068;42.158;24.732;2023-03-22T07:35:52;99488.59;;;11.49;100.00
8051;BME280;4068;42.158;24.732;2023-03-22T07:38:17;99473.69;;;11.58;100.00
8051;BME280;4068;42.158;24.732;2023-03-22T07:40:43;99502.03;;;12.09;100.00
8051;BME280;4068;42.158;24.732;2023-03-22T07:43:08;99514.16;;;12.33;100.00
8051;BME280;4068;42.158;24.732;2023-03-22T07:45:36;99499.75;;;12.26;100.00
8051;BME280;4068;42.158;24.732;2023-03-22T07:48:01;99528.84;;;12.28;100.00
8051;BME280;4068;42.158;24.732;2023-03-22T07:50:27;99544.56;;;12.40;100.00
8051;BME280;4068;42.158;24.732;2023-03-22T07:52:52;99511.47;;;12.23;100.00
8051;BME280;4068;42.158;24.732;2023-03-22T07:55:18;99544.19;;;12.14;100.00
8051;BME280;4068;42.158;24.732;2023-03-22T07:57:43;99545.44;;;12.20;100.00
8051;BME280;4068;42.158;24.732;2023-03-22T08:00:10;99543.63;;;12.11;100.00
8051;BME280;4068;42.158;24.732;2023-03-22T08:02:36;99540.63;;;12.04;100.00
8051;BME280;4068;42.158;24.732;2023-03-22T08:05:03;99545.59;;;12.18;100.00
8051;BME280;4068;42.158;24.732;2023-03-22T08:07:28;99547.19;;;12.31;100.00
8051;BME280;4068;42.158;24.732;2023-03-22T08:09:54;99538.34;;;12.20;100.00
8051;BME280;4068;42.158;24.732;2023-03-22T08:12:20;99548.53;;;12.15;100.00
8051;BME280;4068;42.158;24.732;2023-03-22T08:14:46;99546.81;;;12.45;100.00
8051;BME280;4068;42.158;24.732;2023-03-22T08:17:18;99549.97;;;12.70;100.00
8051;BME280;4068;42.158;24.732;2023-03-22T08:19:43;99560.44;;;12.62;100.00
8051;BME280;4068;42.158;24.732;2023-03-22T08:22:09;99553.88;;;12.66;100.00
8051;BME280;4068;42.158;24.732;2023-03-22T08:24:36;99556.69;;;12.64;100.00
8051;BME280;4068;42.158;24.732;2023-03-22T08:27:02;99529.84;;;12.36;100.00
8051;BME280;4068;42.158;24.732;2023-03-22T08:29:27;99566.84;;;12.49;100.00
8051;BME280;4068;42.158;24.732;2023-03-22T08:31:53;99534.75;;;12.41;100.00
8051;BME280;4068;42.158;24.732;2023-03-22T08:34:19;99562.38;;;12.59;100.00
8051;BME280;4068;42.158;24.732;2023-03-22T08:36:45;99567.44;;;12.72;100.00
8051;BME280;4068;42.158;24.732;2023-03-22T08:39:10;99572.53;;;12.85;100.00
8051;BME280;4068;42.158;24.732;2023-03-22T08:41:36;99569.59;;;12.98;100.00
8051;BME280;4068;42.158;24.732;2023-03-22T08:44:01;99574.78;;;13.00;100.00
8051;BME280;4068;42.158;24.732;2023-03-22T08:46:27;99559.22;;;12.95;100.00
8051;BME280;4068;42.158;24.732;2023-03-22T08:48:52;99559.25;;;13.15;100.00
8051;BME280;4068;42.158;24.732;2023-03-22T08:51:20;99532.91;;;13.11;100.00
8051;BME280;4068;42.158;24.732;2023-03-22T08:53:46;99562.06;;;13.13;100.00
8051;BME280;4068;42.158;24.732;2023-03-22T08:56:12;99572.72;;;13.33;100.00
8051;BME280;4068;42.158;24.732;2023-03-22T08:58:42;99572.28;;;13.08;100.00
8051;BME280;4068;42.158;24.732;2023-03-22T09:01:15;99558.63;;;12.62;100.00
8051;BME280;4068;42.158;24.732;2023-03-22T09:03:41;99558.78;;;12.70;100.00
8051;BME280;4068;42.158;24.732;2023-03-22T09:06:10;99560.19;;;12.74;100.00
8051;BME280;4068;42.158;24.732;2023-03-22T09:08:36;99554.75;;;13.05;100.00
8051;BME280;4068;42.158;24.732;2023-03-22T09:11:02;99555.19;;;13.10;100.00
8051;BME280;4068;42.158;24.732;2023-03-22T09:13:28;99553.25;;;13.42;100.00
8051;BME280;4068;42.158;24.732;2023-03-22T09:15:55;99551.66;;;13.29;100.00
8051;BME280;4068;42.158;24.732;2023-03-22T09:18:22;99551.28;;;13.34;100.00
8051;BME280;4068;42.158;24.732;2023-03-22T09:20:49;99555.53;;;13.94;100.00
8051;BME280;4068;42.158;24.732;2023-03-22T09:23:15;99548.97;;;14.26;100.00
8051;BME280;4068;42.158;24.732;2023-03-22T09:25:47;99579.38;;;14.71;100.00
8051;BME280;4068;42.158;24.732;2023-03-22T09:28:12;99579.44;;;15.07;100.00
8051;BME280;4068;42.158;24.732;2023-03-22T09:30:38;99568.13;;;15.13;100.00
8051;BME280;4068;42.158;24.732;2023-03-22T09:33:04;99555.84;;;15.20;100.00
8051;BME280;4068;42.158;24.732;2023-03-22T09:35:31;99580.09;;;15.45;100.00
8051;BME280;4068;42.158;24.732;2023-03-22T09:37:57;99581.28;;;15.68;100.00
8051;BME280;4068;42.158;24.732;2023-03-22T09:40:28;99573.00;;;15.53;100.00
8051;BME280;4068;42.158;24.732;2023-03-22T09:42:59;99562.41;;;15.26;100.00
8051;BME280;4068;42.158;24.732;2023-03-22T09:45:47;99564.44;;;15.50;100.00
8051;BME280;4068;42.158;24.732;2023-03-22T09:48:21;99565.09;;;15.70;100.00
8051;BME280;4068;42.158;24.732;2023-03-22T09:50:53;99547.69;;;15.66;100.00
8051;BME280;4068;42.158;24.732;2023-03-22T09:53:22;99547.59;;;15.94;100.00
8051;BME280;4068;42.158;24.732;2023-03-22T09:59:28;99554.53;;;16.13;100.00
8051;BME280;4068;42.158;24.732;2023-03-22T10:04:25;99555.03;;;16.51;99.96
8051;BME280;4068;42.158;24.732;2023-03-22T10:10:04;99566.13;;;16.56;97.11
8051;BME280;4068;42.158;24.732;2023-03-22T10:15:31;99558.28;;;16.71;97.54
8051;BME280;4068;42.158;24.732;2023-03-22T10:17:55;99529.75;;;16.88;95.47
8051;BME280;4068;42.158;24.732;2023-03-22T10:22:57;99531.31;;;16.64;95.31
8051;BME280;4068;42.158;24.732;2023-03-22T10:25:35;99556.63;;;16.78;94.84
8051;BME280;4068;42.158;24.732;2023-03-22T10:28:05;99547.41;;;16.72;95.93
8051;BME280;4068;42.158;24.732;2023-03-22T10:30:36;99553.19;;;16.94;94.66
8051;BME280;4068;42.158;24.732;2023-03-22T10:33:21;99545.91;;;16.78;94.87
8051;BME280;4068;42.158;24.732;2023-03-22T10:35:48;99549.16;;;16.47;93.78
8051;BME280;4068;42.158;24.732;2023-03-22T10:38:25;99546.66;;;16.46;96.95
8051;BME280;4068;42.158;24.732;2023-03-22T10:40:54;99548.31;;;16.89;94.64
8051;BME280;4068;42.158;24.732;2023-03-22T10:43:36;99546.00;;;16.95;92.73
8051;BME280;4068;42.158;24.732;2023-03-22T10:46:04;99544.69;;;17.48;89.34
8051;BME280;4068;42.158;24.732;2023-03-22T10:48:52;99549.50;;;17.86;86.16
8051;BME280;4068;42.158;24.732;2023-03-22T10:51:31;99535.84;;;18.28;85.52
8051;BME280;4068;42.158;24.732;2023-03-22T10:53:59;99541.47;;;18.42;83.36
8051;BME280;4068;42.158;24.732;2023-03-22T10:56:25;99531.88;;;18.48;81.84
8051;BME280;4068;42.158;24.732;2023-03-22T10:58:51;99529.06;;;18.41;82.41
8051;BME280;4068;42.158;24.732;2023-03-22T11:01:33;99533.84;;;18.54;81.28
8051;BME280;4068;42.158;24.732;2023-03-22T11:04:12;99520.53;;;18.37;81.25
8051;BME280;4068;42.158;24.732;2023-03-22T11:06:51;99521.19;;;18.39;79.61
8051;BME280;4068;42.158;24.732;2023-03-22T11:09:19;99517.50;;;18.40;79.80
8051;BME280;4068;42.158;24.732;2023-03-22T11:11:58;99512.03;;;18.57;77.23
8051;BME280;4068;42.158;24.732;2023-03-22T11:14:41;99512.53;;;18.21;77.38
8051;BME280;4068;42.158;24.732;2023-03-22T11:17:10;99512.06;;;18.17;79.00
8051;BME280;4068;42.158;24.732;2023-03-22T11:19:40;99508.16;;;18.59;77.58
8051;BME280;4068;42.158;24.732;2023-03-22T11:24:40;99505.91;;;19.03;75.12
8051;BME280;4068;42.158;24.732;2023-03-22T11:27:24;99510.59;;;19.01;73.64
8051;BME280;4068;42.158;24.732;2023-03-22T11:29:55;99511.81;;;19.21;73.78
8051;BME280;4068;42.158;24.732;2023-03-22T11:32:34;99502.38;;;19.02;75.24
8051;BME280;4068;42.158;24.732;2023-03-22T11:35:09;99497.00;;;19.02;72.20
8051;BME280;4068;42.158;24.732;2023-03-22T11:37:43;99497.38;;;18.68;74.89
8051;BME280;4068;42.158;24.732;2023-03-22T11:42:42;99494.66;;;18.99;73.99
8051;BME280;4068;42.158;24.732;2023-03-22T11:45:13;99490.31;;;18.98;72.38
8051;BME280;4068;42.158;24.732;2023-03-22T11:47:40;99462.97;;;18.94;70.38
8051;BME280;4068;42.158;24.732;2023-03-22T11:50:14;99488.94;;;19.25;68.97
8051;BME280;4068;42.158;24.732;2023-03-22T11:52:46;99493.28;;;19.26;61.78
8051;BME280;4068;42.158;24.732;2023-03-22T11:55:14;99458.63;;;18.62;62.68
8051;BME280;4068;42.158;24.732;2023-03-22T11:57:40;99473.00;;;18.46;63.92
8051;BME280;4068;42.158;24.732;2023-03-22T12:00:11;99448.88;;;18.38;66.33
8051;BME280;4068;42.158;24.732;2023-03-22T12:02:59;99475.53;;;18.71;67.90
8051;BME280;4068;42.158;24.732;2023-03-22T12:05:28;99483.44;;;18.33;68.42
8051;BME280;4068;42.158;24.732;2023-03-22T12:08:02;99478.91;;;18.41;68.30
8051;BME280;4068;42.158;24.732;2023-03-22T12:10:35;99481.06;;;18.46;65.74
8051;BME280;4068;42.158;24.732;2023-03-22T12:13:07;99452.91;;;18.34;67.39
8051;BME280;4068;42.158;24.732;2023-03-22T12:15:41;99472.50;;;18.42;69.21
8051;BME280;4068;42.158;24.732;2023-03-22T12:18:27;99470.59;;;18.20;69.77
8051;BME280;4068;42.158;24.732;2023-03-22T12:20:56;99446.78;;;18.17;70.46
8051;BME280;4068;42.158;24.732;2023-03-22T12:23:26;99469.22;;;18.24;68.20
8051;BME280;4068;42.158;24.732;2023-03-22T12:25:56;99470.28;;;18.23;69.06
8051;BME280;4068;42.158;24.732;2023-03-22T12:28:33;99466.44;;;18.17;67.48
8051;BME280;4068;42.158;24.732;2023-03-22T12:31:03;99468.34;;;18.40;68.90
8051;BME280;4068;42.158;24.732;2023-03-22T12:33:39;99461.63;;;18.67;67.21
8051;BME280;4068;42.158;24.732;2023-03-22T12:36:11;99471.09;;;18.78;67.50
8051;BME280;4068;42.158;24.732;2023-03-22T12:38:43;99467.84;;;18.91;66.99
8051;BME280;4068;42.158;24.732;2023-03-22T12:41:15;99469.06;;;19.11;65.37
8051;BME280;4068;42.158;24.732;2023-03-22T12:46:18;99479.69;;;18.50;63.46
8051;BME280;4068;42.158;24.732;2023-03-22T12:48:49;99451.47;;;18.54;61.78
8051;BME280;4068;42.158;24.732;2023-03-22T12:51:16;99475.28;;;18.80;62.70
8051;BME280;4068;42.158;24.732;2023-03-22T12:53:48;99455.00;;;18.78;61.11
8051;BME280;4068;42.158;24.732;2023-03-22T12:56:17;99467.84;;;18.91;59.99
8051;BME280;4068;42.158;24.732;2023-03-22T12:58:56;99472.25;;;19.07;59.31
8051;BME280;4068;42.158;24.732;2023-03-22T13:04:29;99465.06;;;19.45;57.17
8051;BME280;4068;42.158;24.732;2023-03-22T13:07:13;99473.22;;;19.67;57.47
8051;BME280;4068;42.158;24.732;2023-03-22T13:09:45;99469.19;;;20.01;56.40
8051;BME280;4068;42.158;24.732;2023-03-22T13:17:39;99466.69;;;19.99;53.75
8051;BME280;4068;42.158;24.732;2023-03-22T13:30:27;99461.19;;;19.10;58.79
8051;BME280;4068;42.158;24.732;2023-03-22T13:35:25;99449.66;;;18.70;59.68
8051;BME280;4068;42.158;24.732;2023-03-22T13:37:53;99466.09;;;18.52;59.68
8051;BME280;4068;42.158;24.732;2023-03-22T13:40:35;99453.47;;;18.29;60.74
8051;BME280;4068;42.158;24.732;2023-03-22T13:43:22;99426.97;;;17.78;62.36
8051;BME280;4068;42.158;24.732;2023-03-22T13:51:10;99454.75;;;18.02;61.89
8051;BME280;4068;42.158;24.732;2023-03-22T13:53:41;99451.78;;;17.80;63.13
8051;BME280;4068;42.158;24.732;2023-03-22T13:56:10;99454.66;;;17.79;63.50
8051;BME280;4068;42.158;24.732;2023-03-22T13:58:51;99419.66;;;17.55;64.11
8051;BME280;4068;42.158;24.732;2023-03-22T14:01:27;99440.09;;;17.65;63.33
8051;BME280;4068;42.158;24.732;2023-03-22T14:03:57;99452.72;;;17.39;64.53
8051;BME280;4068;42.158;24.732;2023-03-22T14:06:34;99453.91;;;17.20;66.11
8051;BME280;4068;42.158;24.732;2023-03-22T14:09:12;99456.41;;;17.05;66.76
8051;BME280;4068;42.158;24.732;2023-03-22T14:12:04;99429.94;;;16.86;67.24
8051;BME280;4068;42.158;24.732;2023-03-22T14:14:38;99436.44;;;16.59;68.88
8051;BME280;4068;42.158;24.732;2023-03-22T14:19:39;99461.41;;;16.76;69.36
8051;BME280;4068;42.158;24.732;2023-03-22T14:22:12;99456.84;;;16.60;69.73
8051;BME280;4068;42.158;24.732;2023-03-22T14:24:38;99458.31;;;16.46;71.01
8051;BME280;4068;42.158;24.732;2023-03-22T14:27:05;99436.44;;;16.50;71.10
8051;BME280;4068;42.158;24.732;2023-03-22T14:29:44;99453.16;;;16.52;70.22
8051;BME280;4068;42.158;24.732;2023-03-22T14:32:22;99441.97;;;16.57;70.40
8051;BME280;4068;42.158;24.732;2023-03-22T14:34:55;99449.66;;;16.60;70.33
8051;BME280;4068;42.158;24.732;2023-03-22T14:37:23;99427.91;;;16.47;70.50
8051;BME280;4068;42.158;24.732;2023-03-22T14:39:50;99454.19;;;16.68;70.51
8051;BME280;4068;42.158;24.732;2023-03-22T14:42:28;99455.69;;;16.79;70.20
8051;BME280;4068;42.158;24.732;2023-03-22T14:44:59;99455.69;;;16.79;69.31
8051;BME280;4068;42.158;24.732;2023-03-22T14:47:30;99466.09;;;16.73;69.89
8051;BME280;4068;42.158;24.732;2023-03-22T14:50:03;99443.13;;;16.46;70.04
8051;BME280;4068;42.158;24.732;2023-03-22T14:52:32;99443.28;;;16.36;69.97